createdAt,value
2023-01-26T00:00:16.101Z,35.28
2023-01-26T00:01:23.294Z,34.90
2023-01-26T00:02:26.457Z,36.22
2023-01-26T00:03:28.260Z,36.90
2023-01-26T00:04:30.175Z,35.60
2023-01-26T00:05:32.239Z,36.28
2023-01-26T00:06:34.162Z,37.55
2023-01-26T00:07:35.990Z,34.38
2023-01-26T00:08:39.033Z,37.00
2023-01-26T00:09:41.002Z,35.42
2023-01-26T00:10:50.386Z,35.90
2023-01-26T00:11:52.214Z,34.67
2023-01-26T00:12:54.050Z,32.75
2023-01-26T00:14:00.367Z,34.63
2023-01-26T00:15:02.062Z,36.13
2023-01-26T00:16:04.839Z,36.05
2023-01-26T00:17:06.634Z,35.10
2023-01-26T00:18:09.475Z,34.10
2023-01-26T00:19:15.172Z,36.47
2023-01-26T00:20:17.460Z,33.15
2023-01-26T00:21:21.936Z,35.83
2023-01-26T00:22:26.519Z,37.40
2023-01-26T00:23:30.631Z,35.67
2023-01-26T00:24:33.751Z,36.33
2023-01-26T00:25:40.270Z,37.83
2023-01-26T00:26:41.986Z,38.60
2023-01-26T00:27:44.580Z,37.42
2023-01-26T00:28:46.875Z,36.78
2023-01-26T00:29:50.155Z,36.70
2023-01-26T00:30:52.328Z,37.03
2023-01-26T00:31:54.281Z,37.00
2023-01-26T00:32:57.592Z,39.00
2023-01-26T00:34:00.125Z,35.70
2023-01-26T00:35:02.777Z,35.17
2023-01-26T00:36:05.082Z,37.63
2023-01-26T00:37:06.949Z,36.45
2023-01-26T00:38:09.787Z,35.97
2023-01-26T00:39:11.771Z,36.45
2023-01-26T00:40:13.654Z,35.50
2023-01-26T00:41:34.742Z,34.83
2023-01-26T00:42:36.913Z,36.78
2023-01-26T00:43:39.053Z,34.30
2023-01-26T00:44:42.703Z,35.22
2023-01-26T00:45:44.816Z,32.90
2023-01-26T00:46:47.875Z,37.40
2023-01-26T00:47:49.783Z,33.42
2023-01-26T00:48:52.169Z,35.45
2023-01-26T00:49:57.152Z,36.88
2023-01-26T00:50:58.849Z,36.15
2023-01-26T00:52:00.881Z,33.20
2023-01-26T00:53:02.700Z,35.55
2023-01-26T00:54:04.488Z,35.35
2023-01-26T00:55:06.974Z,35.90
2023-01-26T00:56:09.306Z,36.10
2023-01-26T00:57:11.025Z,36.90
2023-01-26T00:58:12.981Z,34.20
2023-01-26T00:59:14.596Z,34.65
2023-01-26T01:00:19.917Z,34.88
2023-01-26T01:01:22.183Z,33.85
2023-01-26T01:02:24.153Z,35.47
2023-01-26T01:03:26.821Z,34.50
2023-01-26T01:04:31.654Z,34.92
2023-01-26T01:05:34.517Z,34.10
2023-01-26T01:06:36.530Z,34.00
2023-01-26T01:07:38.253Z,33.47
2023-01-26T01:08:40.004Z,35.50
2023-01-26T01:09:41.893Z,32.67
2023-01-26T01:10:44.449Z,34.63
2023-01-26T01:11:46.135Z,32.70
2023-01-26T01:12:48.010Z,34.67
2023-01-26T01:13:49.733Z,35.80
2023-01-26T01:14:51.968Z,33.13
2023-01-26T01:15:53.926Z,32.45
2023-01-26T01:16:56.231Z,35.97
2023-01-26T01:17:59.335Z,32.95
2023-01-26T01:19:02.290Z,34.03
2023-01-26T01:20:09.534Z,34.28
2023-01-26T01:21:14.496Z,33.00
2023-01-26T01:22:16.508Z,32.45
2023-01-26T01:23:18.424Z,35.05
2023-01-26T01:24:20.547Z,33.63
2023-01-26T01:25:24.143Z,33.88
2023-01-26T01:26:27.780Z,32.70
2023-01-26T01:27:29.740Z,33.00
2023-01-26T01:28:33.762Z,35.33
2023-01-26T01:29:35.813Z,36.45
2023-01-26T01:30:38.480Z,34.10
2023-01-26T01:31:42.253Z,36.95
2023-01-26T01:32:45.010Z,38.38
2023-01-26T01:33:47.415Z,36.45
2023-01-26T01:34:49.572Z,35.60
2023-01-26T01:36:04.418Z,34.70
2023-01-26T01:37:06.719Z,34.92
2023-01-26T01:38:08.812Z,32.22
2023-01-26T01:39:11.111Z,33.83
2023-01-26T01:40:13.737Z,37.97
2023-01-26T01:41:20.129Z,37.10
2023-01-26T01:42:23.863Z,36.63
2023-01-26T01:43:27.249Z,35.05
2023-01-26T01:44:30.204Z,36.15
2023-01-26T01:45:46.310Z,36.58
2023-01-26T01:46:56.707Z,34.60
2023-01-26T01:48:03.964Z,34.53
2023-01-26T01:49:14.566Z,36.50
2023-01-26T01:50:18.241Z,35.25
2023-01-26T01:52:04.293Z,34.22
2023-01-26T01:53:11.964Z,32.53
2023-01-26T01:54:18.404Z,33.55
2023-01-26T01:55:20.765Z,34.92
2023-01-26T01:56:27.272Z,32.50
2023-01-26T01:57:45.244Z,35.40
2023-01-26T01:58:53.587Z,35.85
2023-01-26T02:00:10.012Z,35.53
2023-01-26T02:01:12.888Z,34.65
2023-01-26T02:02:16.157Z,34.45
2023-01-26T02:03:21.483Z,37.00
2023-01-26T02:04:25.031Z,34.85
2023-01-26T02:05:32.925Z,34.45
2023-01-26T02:06:53.397Z,35.38
2023-01-26T02:07:55.936Z,33.80
2023-01-26T02:08:59.655Z,35.00
2023-01-26T02:10:18.764Z,34.85
2023-01-26T02:11:32.551Z,33.05
2023-01-26T02:12:37.173Z,34.55
2023-01-26T02:13:41.797Z,34.83
2023-01-26T02:14:45.189Z,36.40
2023-01-26T02:15:47.425Z,34.50
2023-01-26T02:16:49.390Z,34.63
2023-01-26T02:17:53.056Z,33.90
2023-01-26T02:18:55.953Z,34.40
2023-01-26T02:20:04.610Z,33.17
2023-01-26T02:21:09.142Z,34.60
2023-01-26T02:22:28.024Z,37.05
2023-01-26T02:23:32.920Z,35.10
2023-01-26T02:24:38.990Z,36.03
2023-01-26T02:25:54.334Z,36.28
2023-01-26T02:26:57.241Z,35.25
2023-01-26T02:27:59.745Z,34.30
2023-01-26T02:29:08.150Z,36.17
2023-01-26T02:30:12.480Z,35.55
2023-01-26T02:31:14.880Z,35.85
2023-01-26T02:32:16.946Z,33.92
2023-01-26T02:33:24.812Z,36.05
2023-01-26T02:34:28.955Z,36.15
2023-01-26T02:35:30.927Z,34.10
2023-01-26T02:36:34.674Z,35.17
2023-01-26T02:37:36.826Z,37.70
2023-01-26T02:38:44.695Z,36.42
2023-01-26T02:39:55.470Z,36.45
2023-01-26T02:41:04.760Z,34.72
2023-01-26T02:42:25.994Z,35.15
2023-01-26T02:43:28.964Z,35.45
2023-01-26T02:44:32.878Z,37.22
2023-01-26T02:45:34.897Z,34.85
2023-01-26T02:46:36.921Z,34.20
2023-01-26T02:47:40.590Z,34.85
2023-01-26T02:49:01.341Z,36.03
2023-01-26T02:50:03.845Z,34.88
2023-01-26T02:51:06.359Z,37.70
2023-01-26T02:52:09.351Z,31.88
2023-01-26T02:53:11.474Z,34.85
2023-01-26T02:54:33.535Z,35.75
2023-01-26T02:55:35.597Z,36.47
2023-01-26T02:56:40.857Z,35.75
2023-01-26T02:57:43.030Z,35.45
2023-01-26T02:58:44.702Z,34.55
2023-01-26T02:59:46.907Z,35.15
2023-01-26T03:00:48.981Z,34.40
2023-01-26T03:01:53.596Z,35.08
2023-01-26T03:02:58.819Z,33.13
2023-01-26T03:04:00.736Z,33.70
2023-01-26T03:05:04.720Z,35.47
2023-01-26T03:06:06.677Z,34.30
2023-01-26T03:07:08.859Z,34.83
2023-01-26T03:08:10.691Z,33.97
2023-01-26T03:09:12.660Z,33.80
2023-01-26T03:10:16.987Z,34.15
2023-01-26T03:11:18.873Z,34.33
2023-01-26T03:12:20.833Z,36.65
2023-01-26T03:13:22.723Z,36.47
2023-01-26T03:14:24.975Z,35.53
2023-01-26T03:15:43.558Z,34.13
2023-01-26T03:16:45.456Z,36.05
2023-01-26T03:17:47.210Z,36.90
2023-01-26T03:19:04.777Z,35.42
2023-01-26T03:20:26.330Z,36.00
2023-01-26T03:21:46.747Z,34.65
2023-01-26T03:23:07.360Z,33.58
2023-01-26T03:24:32.353Z,34.90
2023-01-26T03:25:55.796Z,34.47
2023-01-26T03:27:16.617Z,32.05
2023-01-26T03:28:22.519Z,31.70
2023-01-26T03:29:29.129Z,32.50
2023-01-26T03:30:31.035Z,32.97
2023-01-26T03:31:33.012Z,32.88
2023-01-26T03:32:34.852Z,36.38
2023-01-26T03:33:36.744Z,35.10
2023-01-26T03:34:38.927Z,34.35
2023-01-26T03:35:40.749Z,35.10
2023-01-26T03:36:43.412Z,33.35
2023-01-26T03:37:45.302Z,35.95
2023-01-26T03:38:47.426Z,33.20
2023-01-26T03:40:11.518Z,35.25
2023-01-26T03:41:32.539Z,34.03
2023-01-26T03:42:54.216Z,36.55
2023-01-26T03:44:14.666Z,34.85
2023-01-26T03:45:35.628Z,35.70
2023-01-26T03:46:56.828Z,33.72
2023-01-26T03:48:30.871Z,34.60
2023-01-26T03:49:51.515Z,33.60
2023-01-26T03:51:12.112Z,34.22
2023-01-26T03:52:32.399Z,35.80
2023-01-26T03:53:53.413Z,35.65
2023-01-26T03:55:13.880Z,34.42
2023-01-26T03:56:20.443Z,34.22
2023-01-26T03:57:22.390Z,35.80
2023-01-26T03:58:24.579Z,36.80
2023-01-26T03:59:39.416Z,36.65
2023-01-26T04:00:41.606Z,36.65
2023-01-26T04:02:05.968Z,36.70
2023-01-26T04:03:27.077Z,37.25
2023-01-26T04:04:47.882Z,35.28
2023-01-26T04:06:16.159Z,37.90
2023-01-26T04:07:38.233Z,37.05
2023-01-26T04:08:39.950Z,35.88
2023-01-26T04:09:41.944Z,36.00
2023-01-26T04:10:43.754Z,38.38
2023-01-26T04:11:46.552Z,40.25
2023-01-26T04:13:07.620Z,39.83
2023-01-26T04:14:32.309Z,41.25
2023-01-26T04:15:58.775Z,40.22
2023-01-26T04:17:21.719Z,41.33
2023-01-26T04:18:42.419Z,39.42
2023-01-26T04:20:02.885Z,41.67
2023-01-26T04:21:24.362Z,41.30
2023-01-26T04:22:26.876Z,40.50
2023-01-26T04:23:29.020Z,40.35
2023-01-26T04:24:30.819Z,38.63
2023-01-26T04:25:32.616Z,41.08
2023-01-26T04:26:37.788Z,41.78
2023-01-26T04:27:41.138Z,41.33
2023-01-26T04:28:42.863Z,41.25
2023-01-26T04:29:44.989Z,42.45
2023-01-26T04:30:47.149Z,44.15
2023-01-26T04:31:49.300Z,40.33
2023-01-26T04:32:51.635Z,43.35
2023-01-26T04:33:54.715Z,43.10
2023-01-26T04:34:56.637Z,43.35
2023-01-26T04:36:06.881Z,43.13
2023-01-26T04:37:10.376Z,43.38
2023-01-26T04:38:12.232Z,45.22
2023-01-26T04:39:14.428Z,45.05
2023-01-26T04:40:16.593Z,44.30
2023-01-26T04:41:18.620Z,44.90
2023-01-26T04:42:21.135Z,46.47
2023-01-26T04:43:22.911Z,44.85
2023-01-26T04:44:25.376Z,45.17
2023-01-26T04:45:27.299Z,42.20
2023-01-26T04:46:29.227Z,42.38
2023-01-26T04:47:31.557Z,41.38
2023-01-26T04:48:34.379Z,42.85
2023-01-26T04:49:36.066Z,43.63
2023-01-26T04:50:38.310Z,41.92
2023-01-26T04:51:40.713Z,42.60
2023-01-26T04:52:42.749Z,43.45
2023-01-26T04:53:44.776Z,41.97
2023-01-26T04:54:46.564Z,43.50
2023-01-26T04:55:48.900Z,44.65
2023-01-26T04:56:51.739Z,44.47
2023-01-26T04:57:53.534Z,47.15
2023-01-26T04:58:56.579Z,45.15
2023-01-26T04:59:58.969Z,44.20
2023-01-26T05:01:01.049Z,43.90
2023-01-26T05:02:03.457Z,41.97
2023-01-26T05:03:05.208Z,46.47
2023-01-26T05:04:07.702Z,42.50
2023-01-26T05:05:10.267Z,42.95
2023-01-26T05:06:12.826Z,42.05
2023-01-26T05:07:14.852Z,41.72
2023-01-26T05:08:17.823Z,43.65
2023-01-26T05:09:19.773Z,41.60
2023-01-26T05:10:21.848Z,41.85
2023-01-26T05:11:24.284Z,39.63
2023-01-26T05:12:35.456Z,41.65
2023-01-26T05:13:37.627Z,41.58
2023-01-26T05:14:39.398Z,40.42
2023-01-26T05:15:41.415Z,40.15
2023-01-26T05:16:43.234Z,39.70
2023-01-26T05:17:45.160Z,38.40
2023-01-26T05:18:47.260Z,42.03
2023-01-26T05:19:48.894Z,40.00
2023-01-26T05:20:50.752Z,37.35
2023-01-26T05:21:52.821Z,39.45
2023-01-26T05:22:54.815Z,40.33
2023-01-26T05:23:57.469Z,40.88
2023-01-26T05:24:59.652Z,40.15
2023-01-26T05:26:01.684Z,38.50
2023-01-26T05:27:21.712Z,40.38
2023-01-26T05:28:23.840Z,39.28
2023-01-26T05:29:25.720Z,39.28
2023-01-26T05:30:27.952Z,39.25
2023-01-26T05:31:29.785Z,39.53
2023-01-26T05:32:31.845Z,38.28
2023-01-26T05:33:33.689Z,39.10
2023-01-26T05:34:35.441Z,38.03
2023-01-26T05:35:37.328Z,38.58
2023-01-26T05:36:39.134Z,39.00
2023-01-26T05:37:42.674Z,40.83
2023-01-26T05:38:44.799Z,40.85
2023-01-26T05:39:46.927Z,42.03
2023-01-26T05:40:49.200Z,41.17
2023-01-26T05:41:51.237Z,40.03
2023-01-26T05:42:54.085Z,39.03
2023-01-26T05:43:56.378Z,40.13
2023-01-26T05:44:58.127Z,40.60
2023-01-26T05:46:00.169Z,40.72
2023-01-26T05:47:02.139Z,39.00
2023-01-26T05:48:04.273Z,38.10
2023-01-26T05:49:06.147Z,38.15
2023-01-26T05:50:08.394Z,40.05
2023-01-26T05:51:10.164Z,40.30
2023-01-26T05:52:15.459Z,40.72
2023-01-26T05:53:17.289Z,39.50
2023-01-26T05:54:19.405Z,37.53
2023-01-26T05:55:21.296Z,38.05
2023-01-26T05:56:24.833Z,37.95
2023-01-26T05:57:26.762Z,40.63
2023-01-26T05:58:29.972Z,36.95
2023-01-26T05:59:34.893Z,37.67
2023-01-26T06:00:36.855Z,40.20
2023-01-26T06:01:39.909Z,40.67
2023-01-26T06:02:42.409Z,38.97
2023-01-26T06:03:44.484Z,39.38
2023-01-26T06:04:46.649Z,38.40
2023-01-26T06:05:54.372Z,40.00
2023-01-26T06:06:58.069Z,39.65
2023-01-26T06:08:00.693Z,39.30
2023-01-26T06:09:02.578Z,40.33
2023-01-26T06:10:06.103Z,39.65
2023-01-26T06:11:08.126Z,40.20
2023-01-26T06:12:17.662Z,36.42
2023-01-26T06:13:19.983Z,40.03
2023-01-26T06:14:21.753Z,39.05
2023-01-26T06:15:23.538Z,37.58
2023-01-26T06:16:25.833Z,37.83
2023-01-26T06:17:27.983Z,40.67
2023-01-26T06:18:29.850Z,40.75
2023-01-26T06:19:31.680Z,39.08
2023-01-26T06:20:33.330Z,39.63
2023-01-26T06:21:35.291Z,42.65
2023-01-26T06:22:36.935Z,38.33
2023-01-26T06:23:38.962Z,37.90
2023-01-26T06:24:40.884Z,37.08
2023-01-26T06:25:43.216Z,39.08
2023-01-26T06:26:46.984Z,38.63
2023-01-26T06:27:52.297Z,35.97
2023-01-26T06:28:54.921Z,35.95
2023-01-26T06:29:57.419Z,34.30
2023-01-26T06:31:01.224Z,36.50
2023-01-26T06:32:03.058Z,33.30
2023-01-26T06:33:07.128Z,35.58
2023-01-26T06:34:09.015Z,35.95
2023-01-26T06:35:11.171Z,36.15
2023-01-26T06:36:14.997Z,37.08
2023-01-26T06:37:16.955Z,38.10
2023-01-26T06:38:20.460Z,37.05
2023-01-26T06:39:22.207Z,37.10
2023-01-26T06:40:24.165Z,33.08
2023-01-26T06:41:26.485Z,34.58
2023-01-26T06:42:28.179Z,36.72
2023-01-26T06:43:31.345Z,38.63
2023-01-26T06:44:33.053Z,36.40
2023-01-26T06:45:34.797Z,36.80
2023-01-26T06:46:36.769Z,38.67
2023-01-26T06:47:38.777Z,35.90
2023-01-26T06:48:41.060Z,36.45
2023-01-26T06:49:43.168Z,36.50
2023-01-26T06:50:45.877Z,36.05
2023-01-26T06:52:03.200Z,37.05
2023-01-26T06:53:25.628Z,36.25
2023-01-26T06:54:27.486Z,38.65
2023-01-26T06:55:38.843Z,34.90
2023-01-26T06:56:40.898Z,35.88
2023-01-26T06:57:43.620Z,36.38
2023-01-26T06:58:45.305Z,37.05
2023-01-26T06:59:46.965Z,36.05
2023-01-26T07:00:49.039Z,35.75
2023-01-26T07:01:51.320Z,37.92
2023-01-26T07:02:53.613Z,37.30
2023-01-26T07:03:56.025Z,38.65
2023-01-26T07:04:58.000Z,36.67
2023-01-26T07:05:59.711Z,36.20
2023-01-26T07:07:01.560Z,34.15
2023-01-26T07:08:04.385Z,36.88
2023-01-26T07:09:06.366Z,37.63
2023-01-26T07:10:09.083Z,36.05
2023-01-26T07:11:12.656Z,37.10
2023-01-26T07:12:14.415Z,35.72
2023-01-26T07:13:16.466Z,37.40
2023-01-26T07:14:18.568Z,37.58
2023-01-26T07:15:20.231Z,37.85
2023-01-26T07:16:22.067Z,36.85
2023-01-26T07:17:23.814Z,36.25
2023-01-26T07:18:25.558Z,35.75
2023-01-26T07:19:27.400Z,35.92
2023-01-26T07:20:30.358Z,36.60
2023-01-26T07:21:32.279Z,35.08
2023-01-26T07:22:34.304Z,35.55
2023-01-26T07:23:36.154Z,37.20
2023-01-26T07:24:37.868Z,38.55
2023-01-26T07:25:43.383Z,39.97
2023-01-26T07:26:45.085Z,40.40
2023-01-26T07:27:46.768Z,38.50
2023-01-26T07:28:48.701Z,37.42
2023-01-26T07:29:51.496Z,39.03
2023-01-26T07:30:57.425Z,39.72
2023-01-26T07:31:59.572Z,39.67
2023-01-26T07:33:01.960Z,41.63
2023-01-26T07:34:03.929Z,36.60
2023-01-26T07:35:09.010Z,37.65
2023-01-26T07:36:11.343Z,37.70
2023-01-26T07:37:13.184Z,39.08
2023-01-26T07:38:14.945Z,36.15
2023-01-26T07:39:16.859Z,37.97
2023-01-26T07:40:18.795Z,38.97
2023-01-26T07:41:20.731Z,37.53
2023-01-26T07:42:22.654Z,36.20
2023-01-26T07:43:24.653Z,37.75
2023-01-26T07:44:26.832Z,38.15
2023-01-26T07:45:28.500Z,35.95
2023-01-26T07:46:30.358Z,37.75
2023-01-26T07:47:32.044Z,38.28
2023-01-26T07:48:34.513Z,36.60
2023-01-26T07:49:36.901Z,37.15
2023-01-26T07:50:38.812Z,36.65
2023-01-26T07:51:41.067Z,34.45
2023-01-26T07:52:43.844Z,37.03
2023-01-26T07:53:49.829Z,36.00
2023-01-26T07:54:51.666Z,38.40
2023-01-26T07:55:53.478Z,41.95
2023-01-26T07:56:57.974Z,36.38
2023-01-26T07:57:59.679Z,35.05
2023-01-26T07:59:03.755Z,34.00
2023-01-26T08:00:06.789Z,36.65
2023-01-26T08:01:14.253Z,36.85
2023-01-26T08:02:16.024Z,35.65
2023-01-26T08:03:17.776Z,35.65
2023-01-26T08:04:19.641Z,36.20
2023-01-26T08:05:21.516Z,35.15
2023-01-26T08:06:23.342Z,34.85
2023-01-26T08:07:25.402Z,37.10
2023-01-26T08:08:28.791Z,34.55
2023-01-26T08:09:30.646Z,38.40
2023-01-26T08:10:32.602Z,38.58
2023-01-26T08:11:35.330Z,36.13
2023-01-26T08:12:40.863Z,37.88
2023-01-26T08:13:42.740Z,37.70
2023-01-26T08:14:47.024Z,35.50
2023-01-26T08:15:49.112Z,34.45
2023-01-26T08:16:50.744Z,37.88
2023-01-26T08:17:54.605Z,36.95
2023-01-26T08:18:56.497Z,36.75
2023-01-26T08:19:58.298Z,35.83
2023-01-26T08:21:00.713Z,36.85
2023-01-26T08:22:04.142Z,35.40
2023-01-26T08:23:09.178Z,33.65
2023-01-26T08:24:14.265Z,34.03
2023-01-26T08:25:16.607Z,33.50
2023-01-26T08:26:19.986Z,32.75
2023-01-26T08:27:23.158Z,32.70
2023-01-26T08:28:25.606Z,30.20
2023-01-26T08:29:27.484Z,32.88
2023-01-26T08:30:29.225Z,30.60
2023-01-26T08:31:31.188Z,28.77
2023-01-26T08:32:32.981Z,27.70
2023-01-26T08:33:35.433Z,23.77
2023-01-26T08:34:37.083Z,25.98
2023-01-26T08:35:39.624Z,25.00
2023-01-26T08:36:41.401Z,24.92
2023-01-26T08:37:43.537Z,23.55
2023-01-26T08:38:45.423Z,23.40
2023-01-26T08:39:47.109Z,21.95
2023-01-26T08:40:52.064Z,22.90
2023-01-26T08:41:54.663Z,22.92
2023-01-26T08:42:59.322Z,23.52
2023-01-26T08:44:01.494Z,22.25
2023-01-26T08:45:03.457Z,23.45
2023-01-26T08:46:05.634Z,22.90
2023-01-26T08:47:07.615Z,24.20
2023-01-26T08:48:09.371Z,24.05
2023-01-26T08:49:11.200Z,22.90
2023-01-26T08:50:13.205Z,24.05
2023-01-26T08:51:15.395Z,21.63
2023-01-26T08:52:17.051Z,22.33
2023-01-26T08:53:18.787Z,21.17
2023-01-26T08:54:20.673Z,22.27
2023-01-26T08:55:22.468Z,21.92
2023-01-26T08:56:24.987Z,21.40
2023-01-26T08:57:27.324Z,19.80
2023-01-26T08:58:29.873Z,20.05
2023-01-26T08:59:31.960Z,20.52
2023-01-26T09:00:34.269Z,21.02
2023-01-26T09:01:35.967Z,20.38
2023-01-26T09:02:37.876Z,20.02
2023-01-26T09:03:40.282Z,19.98
2023-01-26T09:04:41.978Z,21.13
2023-01-26T09:05:43.761Z,19.48
2023-01-26T09:06:45.650Z,19.20
2023-01-26T09:07:47.380Z,19.90
2023-01-26T09:08:49.440Z,20.98
2023-01-26T09:09:51.259Z,20.95
2023-01-26T09:10:52.986Z,19.73
2023-01-26T09:11:57.855Z,21.10
2023-01-26T09:13:01.733Z,20.00
2023-01-26T09:14:03.779Z,20.77
2023-01-26T09:15:06.684Z,21.58
2023-01-26T09:16:15.609Z,21.05
2023-01-26T09:17:20.428Z,20.45
2023-01-26T09:18:22.112Z,20.17
2023-01-26T09:19:24.150Z,20.00
2023-01-26T09:20:26.481Z,20.30
2023-01-26T09:21:28.365Z,19.80
2023-01-26T09:22:30.746Z,20.52
2023-01-26T09:23:34.427Z,21.63
2023-01-26T09:24:36.225Z,20.00
2023-01-26T09:25:38.777Z,21.38
2023-01-26T09:26:40.519Z,22.13
2023-01-26T09:27:43.999Z,20.92
2023-01-26T09:28:50.355Z,22.88
2023-01-26T09:29:52.765Z,21.50
2023-01-26T09:30:54.767Z,21.20
2023-01-26T09:31:57.564Z,21.73
2023-01-26T09:33:00.753Z,20.50
2023-01-26T09:34:02.842Z,23.05
2023-01-26T09:35:05.210Z,22.60
2023-01-26T09:36:11.307Z,20.75
2023-01-26T09:37:13.272Z,20.85
2023-01-26T09:38:15.122Z,19.48
2023-01-26T09:39:17.149Z,21.33
2023-01-26T09:40:42.081Z,19.67
2023-01-26T09:41:55.604Z,20.25
2023-01-26T09:43:29.401Z,18.25
2023-01-26T09:44:40.633Z,20.90
2023-01-26T09:45:59.103Z,23.42
2023-01-26T09:47:24.569Z,24.30
2023-01-26T09:48:51.825Z,23.52
2023-01-26T09:50:08.790Z,22.67
2023-01-26T09:51:38.481Z,22.80
2023-01-26T09:52:48.242Z,23.23
2023-01-26T09:54:02.179Z,23.65
2023-01-26T09:55:15.525Z,23.95
2023-01-26T09:56:20.227Z,22.98
2023-01-26T09:57:44.552Z,24.27
2023-01-26T09:58:52.686Z,22.83
2023-01-26T10:00:10.072Z,22.85
2023-01-26T10:01:36.377Z,23.90
2023-01-26T10:03:15.674Z,21.88
2023-01-26T10:04:36.886Z,22.63
2023-01-26T10:05:51.550Z,22.60
2023-01-26T10:06:56.729Z,21.58
2023-01-26T10:07:58.522Z,22.25
2023-01-26T10:09:17.078Z,22.25
2023-01-26T10:10:32.531Z,21.73
2023-01-26T10:11:48.593Z,21.95
2023-01-26T10:12:54.144Z,22.20
2023-01-26T10:14:05.309Z,21.83
2023-01-26T10:15:27.697Z,21.10
2023-01-26T10:16:29.994Z,23.00
2023-01-26T10:17:44.294Z,20.80
2023-01-26T10:18:57.647Z,21.15
2023-01-26T10:20:17.941Z,21.77
2023-01-26T10:21:23.790Z,21.65
2023-01-26T10:22:44.297Z,21.50
2023-01-26T10:23:49.489Z,23.67
2023-01-26T10:24:52.703Z,20.13
2023-01-26T10:26:00.100Z,22.00
2023-01-26T10:27:11.115Z,19.70
2023-01-26T10:28:24.764Z,23.45
2023-01-26T10:29:26.787Z,22.38
2023-01-26T10:30:28.809Z,26.33
2023-01-26T10:31:33.160Z,24.23
2023-01-26T10:32:42.640Z,24.17
2023-01-26T10:34:14.728Z,19.67
2023-01-26T10:35:21.468Z,20.70
2023-01-26T10:36:23.783Z,21.70
2023-01-26T10:37:29.991Z,20.50
2023-01-26T10:38:34.624Z,20.40
2023-01-26T10:39:37.949Z,21.45
2023-01-26T10:40:45.594Z,19.23
2023-01-26T10:42:02.262Z,20.70
2023-01-26T10:43:04.148Z,19.17
2023-01-26T10:44:32.971Z,19.73
2023-01-26T10:45:47.022Z,20.20
2023-01-26T10:47:03.780Z,19.38
2023-01-26T10:48:17.968Z,19.58
2023-01-26T10:49:20.224Z,20.42
2023-01-26T10:50:25.323Z,20.05
2023-01-26T10:51:31.350Z,20.30
2023-01-26T10:52:33.134Z,16.90
2023-01-26T10:53:34.902Z,20.88
2023-01-26T10:54:38.208Z,19.48
2023-01-26T10:55:41.092Z,19.35
2023-01-26T10:56:57.553Z,19.15
2023-01-26T10:58:00.292Z,18.85
2023-01-26T10:59:03.189Z,16.63
2023-01-26T11:00:20.145Z,16.60
2023-01-26T11:01:27.352Z,17.17
2023-01-26T11:02:31.642Z,17.27
2023-01-26T11:03:33.585Z,16.92
2023-01-26T11:04:35.413Z,16.95
2023-01-26T11:05:37.303Z,18.60
2023-01-26T11:06:41.384Z,18.42
2023-01-26T11:07:46.331Z,16.55
2023-01-26T11:08:48.125Z,19.50
2023-01-26T11:09:53.405Z,17.95
2023-01-26T11:10:57.412Z,15.60
2023-01-26T11:12:01.955Z,16.80
2023-01-26T11:13:08.794Z,19.05
2023-01-26T11:14:18.754Z,17.92
2023-01-26T11:15:23.707Z,19.20
2023-01-26T11:16:27.756Z,18.80
2023-01-26T11:17:43.237Z,17.70
2023-01-26T11:19:12.982Z,18.75
2023-01-26T11:20:56.855Z,18.15
2023-01-26T11:22:13.329Z,15.05
2023-01-26T11:23:36.837Z,15.85
2023-01-26T11:24:52.607Z,17.73
2023-01-26T11:26:23.646Z,19.58
2023-01-26T11:27:34.821Z,17.20
2023-01-26T11:28:45.751Z,15.05
2023-01-26T11:30:20.512Z,15.90
2023-01-26T11:31:22.746Z,18.58
2023-01-26T11:32:30.532Z,17.48
2023-01-26T11:33:46.252Z,17.52
2023-01-26T11:34:53.905Z,16.92
2023-01-26T11:36:21.639Z,16.38
2023-01-26T11:37:57.821Z,15.40
2023-01-26T11:39:17.050Z,15.40
2023-01-26T11:40:32.225Z,15.63
2023-01-26T11:42:03.021Z,17.52
2023-01-26T11:43:23.137Z,15.70
2023-01-26T11:44:30.751Z,15.82
2023-01-26T11:45:47.809Z,15.65
2023-01-26T11:47:13.877Z,14.32
2023-01-26T11:48:24.463Z,14.77
2023-01-26T11:49:57.156Z,15.30
2023-01-26T11:51:14.689Z,13.77
2023-01-26T11:52:42.859Z,14.30
2023-01-26T11:54:03.665Z,13.57
2023-01-26T11:55:15.662Z,13.98
2023-01-26T11:56:55.137Z,14.80
2023-01-26T11:58:27.874Z,13.80
2023-01-26T11:59:48.625Z,13.60
2023-01-26T12:00:56.636Z,14.38
2023-01-26T12:02:18.790Z,13.00
2023-01-26T12:03:41.642Z,14.18
2023-01-26T12:04:45.784Z,12.70
2023-01-26T12:05:52.652Z,14.05
2023-01-26T12:07:26.160Z,13.27
2023-01-26T12:08:41.880Z,13.18
2023-01-26T12:09:47.157Z,13.48
2023-01-26T12:10:59.170Z,13.75
2023-01-26T12:12:09.026Z,14.35
2023-01-26T12:13:24.480Z,14.32
2023-01-26T12:15:06.038Z,14.35
2023-01-26T12:16:20.722Z,13.63
2023-01-26T12:17:47.332Z,13.13
2023-01-26T12:19:11.234Z,13.70
2023-01-26T12:20:50.286Z,16.10
2023-01-26T12:21:57.455Z,14.70
2023-01-26T12:23:09.572Z,13.65
2023-01-26T12:24:54.286Z,14.30
2023-01-26T12:25:53.146Z,14.85
2023-01-26T12:26:55.229Z,16.08
2023-01-26T12:28:26.585Z,14.57
2023-01-26T12:29:44.916Z,16.08
2023-01-26T12:30:59.492Z,14.95
2023-01-26T12:32:10.205Z,13.38
2023-01-26T12:33:12.215Z,13.88
2023-01-26T12:34:14.425Z,13.40
2023-01-26T12:35:44.496Z,13.50
2023-01-26T12:36:52.063Z,13.30
2023-01-26T12:38:17.290Z,12.63
2023-01-26T12:39:26.675Z,12.90
2023-01-26T12:40:52.276Z,11.60
2023-01-26T12:42:17.453Z,12.50
2023-01-26T12:43:19.136Z,10.93
2023-01-26T12:44:36.005Z,11.65
2023-01-26T12:45:41.743Z,10.90
2023-01-26T12:46:50.420Z,11.52
2023-01-26T12:48:10.207Z,11.27
2023-01-26T12:49:41.144Z,12.23
2023-01-26T12:50:49.188Z,12.85
2023-01-26T12:52:02.549Z,11.20
2023-01-26T12:53:32.518Z,11.43
2023-01-26T12:55:01.342Z,10.23
2023-01-26T12:56:15.259Z,11.32
2023-01-26T12:57:21.877Z,12.88
2023-01-26T12:58:25.328Z,12.68
2023-01-26T12:59:46.670Z,12.00
2023-01-26T13:01:00.164Z,13.52
2023-01-26T13:02:24.330Z,11.10
2023-01-26T13:03:35.546Z,12.70
2023-01-26T13:04:37.800Z,12.05
2023-01-26T13:05:56.176Z,13.23
2023-01-26T13:07:24.684Z,13.57
2023-01-26T13:08:33.112Z,13.65
2023-01-26T13:09:35.023Z,11.32
2023-01-26T13:10:50.143Z,12.02
2023-01-26T13:11:59.922Z,12.48
2023-01-26T13:13:21.663Z,12.63
2023-01-26T13:14:43.719Z,12.60
2023-01-26T13:15:45.505Z,12.80
2023-01-26T13:16:47.223Z,12.90
2023-01-26T13:18:02.530Z,14.07
2023-01-26T13:19:04.919Z,13.93
2023-01-26T13:20:23.692Z,17.15
2023-01-26T13:21:37.847Z,15.23
2023-01-26T13:22:41.811Z,16.50
2023-01-26T13:23:44.212Z,12.65
2023-01-26T13:24:48.759Z,15.65
2023-01-26T13:26:18.145Z,13.70
2023-01-26T13:27:40.797Z,14.00
2023-01-26T13:28:43.762Z,14.55
2023-01-26T13:29:56.209Z,13.55
2023-01-26T13:31:06.860Z,13.70
2023-01-26T13:32:08.968Z,15.65
2023-01-26T13:33:24.702Z,14.95
2023-01-26T13:34:35.137Z,15.07
2023-01-26T13:35:37.637Z,14.07
2023-01-26T13:36:43.605Z,13.75
2023-01-26T13:37:57.826Z,16.83
2023-01-26T13:39:25.431Z,14.80
2023-01-26T13:40:35.794Z,12.93
2023-01-26T13:41:48.446Z,12.90
2023-01-26T13:43:25.836Z,12.63
2023-01-26T13:44:38.613Z,13.65
2023-01-26T13:46:02.635Z,13.02
2023-01-26T13:47:20.941Z,13.07
2023-01-26T13:48:35.085Z,14.40
2023-01-26T13:49:39.295Z,14.35
2023-01-26T13:50:41.512Z,16.13
2023-01-26T13:51:43.773Z,22.95
2023-01-26T13:52:45.484Z,20.00
2023-01-26T13:54:07.860Z,23.38
2023-01-26T13:55:22.226Z,22.52
2023-01-26T13:56:26.879Z,17.27
2023-01-26T13:57:30.556Z,18.55
2023-01-26T13:58:33.267Z,21.85
2023-01-26T13:59:48.669Z,23.05
2023-01-26T14:01:19.988Z,28.15
2023-01-26T14:02:35.128Z,18.90
2023-01-26T14:03:37.862Z,15.30
2023-01-26T14:04:51.900Z,17.15
2023-01-26T14:06:15.118Z,18.90
2023-01-26T14:07:19.191Z,22.80
2023-01-26T14:08:22.791Z,26.73
2023-01-26T14:09:28.733Z,20.85
2023-01-26T14:10:31.129Z,19.38
2023-01-26T14:11:34.348Z,17.77
2023-01-26T14:12:47.210Z,22.70
2023-01-26T14:13:53.843Z,17.50
2023-01-26T14:15:01.063Z,15.65
2023-01-26T14:16:08.392Z,15.95
2023-01-26T14:17:30.831Z,15.55
2023-01-26T14:18:33.079Z,15.93
2023-01-26T14:19:40.636Z,16.60
2023-01-26T14:20:43.168Z,16.83
2023-01-26T14:21:52.428Z,15.35
2023-01-26T14:23:21.553Z,13.88
2023-01-26T14:24:41.569Z,15.13
2023-01-26T14:25:57.479Z,18.65
2023-01-26T14:27:00.224Z,15.68